Portada
METAR-TAF:

METAR-TAF

Aeropuertos :

Valencia, España

Aeropuerto de Valencia

latitud: 39-30N, longitud: 000-28W, altitud: 69 m

Observación

El informe se hizo hace 43 minutos, a las 07:30 UTC
Viento 2 kt con dirección variable
Temperatura 12°C
Humedad 71%
Presión 1026 hPa
Visibilidad 10 km o más
Escasas nubes a una altura de 4000 ft

METAR: LEVC 280730Z VRB02KT 9999 FEW040 12/07 Q1026 NOSIG

Hora: 10:13 (08:13 UTC)

Pronóstico

El informe se hizo hace 3 horas y 13 minutos, a las 05:00 UTC
Pronóstico válido del 28 a las 06 UTC al 29 a las 06 UTC
Viento 4 kt con dirección variable
Visibilidad 10 km o más
Nubes dispersas a una altura de 1400 ft
Evolucionando progresivamente
del 28 a las 11 UTC al 28 a las 14 UTC
Viento 10 kt del este-sureste
Evolucionando progresivamente
del 28 a las 17 UTC al 28 a las 20 UTC
Viento 4 kt con dirección variable

TAF: LEVC 280500Z 2806/2906 VRB04KT 9999 SCT014 TX21/2814Z TN06/2806Z BECMG 2811/2814 11010KT BECMG 2817/2820 VRB04KT

Observaciones y pronósticos meteorológicos de más de 4000 aeropuertos (mensajes METAR y TAF).

Los puntos amarillos y rojos representan las estaciones disponibles.

Ponga el ratón en el punto deseado para ver el nombre de la estación.

Haga clic para ver las observaciones y los pronósticos meteorológicos.

Para cambiar el mapa : haga clic en los botones verdes con una cruz de color negro para hacer un zoom, en el botón verde con un guión para alejar o en las flechas verdes para mapas adyacentes.


METAR-TAF: